Time;durP1;ratioP1;P1;durP2;ratioP2;P2;SDS_P1;SDS_P2;PMS_P1;PMS_P2;Temp;Humidity;BMP_temperature;BMP_pressure;BME280_temperature;BME280_humidity;BME280_pressure;Samples;Min_cycle;Max_cycle;Signal;HPM_P1;HPM_P2
2023/08/08 00:01:27;;;;;;;;;2.00;2.00;;;;;;;;5055791;28;45481;-78
2023/08/08 00:04:02;;;;;;;;;3.67;3.67;;;;;;;;5074690;28;45372;-80
2023/08/08 00:06:43;;;;;;;;;5.00;3.00;;;;;;;;5058691;28;46321;-79
2023/08/08 00:09:08;;;;;;;;;5.00;5.00;;;;;;;;5062652;28;45824;-77
2023/08/08 00:11:33;;;;;;;;;5.00;5.00;;;;;;;;5058563;28;45527;-85
2023/08/08 00:14:13;;;;;;;;;4.00;4.00;;;;;;;;5085999;28;45406;-85
2023/08/08 00:16:41;;;;;;;;;6.00;6.00;;;;;;;;5055458;28;46141;-79
2023/08/08 00:19:06;;;;;;;;;6.33;5.00;;;;;;;;5044743;28;48148;-78
2023/08/08 00:24:48;;;;;;;;;6.67;5.00;;;;;;;;5059759;28;45522;-78
2023/08/08 00:27:13;;;;;;;;;6.00;4.67;;;;;;;;5083046;28;45233;-83
2023/08/08 00:29:38;;;;;;;;;5.00;5.00;;;;;;;;5086223;28;46440;-83
2023/08/08 00:32:04;;;;;;;;;6.00;4.00;;;;;;;;5080230;28;45491;-78
2023/08/08 00:34:49;;;;;;;;;5.00;5.00;;;;;;;;5065867;28;45467;-79
2023/08/08 00:37:14;;;;;;;;;6.00;5.00;;;;;;;;5048115;28;45806;-80
2023/08/08 00:39:42;;;;;;;;;3.67;3.67;;;;;;;;5069947;28;45979;-76
2023/08/08 00:42:07;;;;;;;;;4.67;3.33;;;;;;;;5055788;28;45717;-79
2023/08/08 00:44:37;;;;;;;;;4.33;4.33;;;;;;;;5061237;28;45476;-77
2023/08/08 00:47:06;;;;;;;;;5.00;4.00;;;;;;;;5076479;28;45545;-77
2023/08/08 00:49:31;;;;;;;;;4.00;3.33;;;;;;;;5076542;28;45437;-78
2023/08/08 00:51:57;;;;;;;;;3.00;3.00;;;;;;;;5057735;28;45959;-79
2023/08/08 00:54:23;;;;;;;;;3.67;3.67;;;;;;;;5082943;28;45425;-84
2023/08/08 00:56:48;;;;;;;;;3.00;3.00;;;;;;;;5067174;28;45453;-84
2023/08/08 00:59:13;;;;;;;;;5.00;5.00;;;;;;;;5083574;28;46153;-83
2023/08/08 01:01:42;;;;;;;;;5.00;5.00;;;;;;;;5085245;28;44781;-85
2023/08/08 01:04:08;;;;;;;;;3.33;2.00;;;;;;;;5064196;28;45423;-84
2023/08/08 01:06:55;;;;;;;;;5.00;4.00;;;;;;;;5059534;28;46874;-84
2023/08/08 01:09:29;;;;;;;;;8.33;7.00;;;;;;;;5062213;28;48106;-84
2023/08/08 01:11:55;;;;;;;;;2.00;2.00;;;;;;;;5065231;28;45422;-83
2023/08/08 01:14:21;;;;;;;;;4.33;3.67;;;;;;;;5081397;28;45457;-82
2023/08/08 01:16:46;;;;;;;;;8.00;3.00;;;;;;;;5076098;28;45740;-83
2023/08/08 01:19:15;;;;;;;;;6.00;5.00;;;;;;;;5083172;28;46347;-83
2023/08/08 01:21:43;;;;;;;;;4.33;3.67;;;;;;;;5082498;28;44828;-84
2023/08/08 01:24:12;;;;;;;;;4.67;3.67;;;;;;;;5083786;28;45501;-82
2023/08/08 01:26:41;;;;;;;;;4.33;4.33;;;;;;;;5079827;28;45369;-84
2023/08/08 01:29:06;;;;;;;;;15.33;10.00;;;;;;;;5056090;28;46573;-78
2023/08/08 01:31:31;;;;;;;;;5.33;4.00;;;;;;;;5073763;28;45548;-77
2023/08/08 01:33:57;;;;;;;;;3.00;3.00;;;;;;;;5075031;28;45556;-79
2023/08/08 01:36:27;;;;;;;;;3.33;3.33;;;;;;;;5057274;28;45612;-79
2023/08/08 01:39:05;;;;;;;;;4.67;4.00;;;;;;;;5074888;28;46294;-77
2023/08/08 01:41:36;;;;;;;;;3.67;3.67;;;;;;;;5046966;28;47007;-76
2023/08/08 01:44:02;;;;;;;;;6.00;6.00;;;;;;;;5061796;28;45799;-78
2023/08/08 01:46:28;;;;;;;;;5.00;4.00;;;;;;;;5054354;28;46256;-77
2023/08/08 01:48:54;;;;;;;;;8.33;4.00;;;;;;;;5071116;28;45557;-78
2023/08/08 01:51:19;;;;;;;;;2.33;2.33;;;;;;;;5071872;28;45561;-77
2023/08/08 01:53:44;;;;;;;;;4.67;4.67;;;;;;;;5052981;28;45422;-77
2023/08/08 01:56:09;;;;;;;;;3.00;3.00;;;;;;;;5053036;28;46111;-76
2023/08/08 01:58:35;;;;;;;;;5.33;3.00;;;;;;;;5063699;28;46255;-77
2023/08/08 02:01:00;;;;;;;;;4.00;3.00;;;;;;;;5068151;28;45545;-78
2023/08/08 02:03:25;;;;;;;;;2.33;2.33;;;;;;;;5071739;28;45392;-76
2023/08/08 02:05:51;;;;;;;;;3.00;3.00;;;;;;;;5070113;28;45834;-77
2023/08/08 02:08:16;;;;;;;;;3.67;3.67;;;;;;;;5071394;28;46807;-78
2023/08/08 02:10:42;;;;;;;;;3.00;3.00;;;;;;;;5054958;28;45574;-77
2023/08/08 02:13:07;;;;;;;;;3.67;2.00;;;;;;;;5073845;28;45422;-76
2023/08/08 02:15:32;;;;;;;;;2.67;2.33;;;;;;;;5064021;28;47008;-77
2023/08/08 02:17:59;;;;;;;;;2.33;2.33;;;;;;;;5060332;28;47191;-77
2023/08/08 02:20:24;;;;;;;;;5.00;4.00;;;;;;;;5077894;28;45442;-77
2023/08/08 02:22:49;;;;;;;;;3.00;3.00;;;;;;;;5075252;28;45786;-78
2023/08/08 02:25:14;;;;;;;;;3.67;2.67;;;;;;;;5061058;28;45446;-77
2023/08/08 02:27:40;;;;;;;;;3.33;3.00;;;;;;;;5054938;28;46131;-77
2023/08/08 02:30:05;;;;;;;;;3.00;3.00;;;;;;;;5072793;28;45687;-78
2023/08/08 02:32:30;;;;;;;;;5.00;3.00;;;;;;;;5073105;28;45430;-78
2023/08/08 02:34:56;;;;;;;;;4.67;4.67;;;;;;;;5053987;28;45781;-77
2023/08/08 02:37:21;;;;;;;;;5.67;4.67;;;;;;;;5072161;28;46096;-78
2023/08/08 02:39:46;;;;;;;;;3.33;3.33;;;;;;;;5053017;28;45494;-77
2023/08/08 02:42:12;;;;;;;;;5.33;4.33;;;;;;;;5054118;28;46006;-77
2023/08/08 02:44:37;;;;;;;;;3.33;3.33;;;;;;;;5053372;28;46048;-76
2023/08/08 02:47:02;;;;;;;;;5.00;5.00;;;;;;;;5053459;28;47013;-77
2023/08/08 02:49:28;;;;;;;;;5.00;3.00;;;;;;;;5053762;28;45989;-77
2023/08/08 02:51:57;;;;;;;;;4.00;4.00;;;;;;;;5072677;28;45688;-76
2023/08/08 02:54:22;;;;;;;;;3.67;3.00;;;;;;;;5071494;28;45804;-77
2023/08/08 02:56:47;;;;;;;;;6.00;4.00;;;;;;;;5072041;28;45803;-77
2023/08/08 02:59:12;;;;;;;;;4.00;4.00;;;;;;;;5071984;28;45355;-78
2023/08/08 03:01:39;;;;;;;;;5.00;5.00;;;;;;;;5055326;28;45606;-77
2023/08/08 03:04:04;;;;;;;;;5.00;3.67;;;;;;;;5072193;28;45487;-78
2023/08/08 03:06:30;;;;;;;;;6.67;4.67;;;;;;;;5072030;28;45413;-78
2023/08/08 03:08:55;;;;;;;;;4.00;4.00;;;;;;;;5069129;28;45830;-78
2023/08/08 03:11:20;;;;;;;;;6.00;3.67;;;;;;;;5049113;28;45388;-76
2023/08/08 03:13:45;;;;;;;;;4.33;4.33;;;;;;;;5058741;28;45647;-77
2023/08/08 03:16:11;;;;;;;;;5.67;4.00;;;;;;;;5056130;28;45749;-78
2023/08/08 03:18:36;;;;;;;;;4.00;3.67;;;;;;;;5051492;28;45761;-78
2023/08/08 03:21:01;;;;;;;;;9.67;7.33;;;;;;;;5054866;28;45742;-78
2023/08/08 03:23:26;;;;;;;;;6.33;4.00;;;;;;;;5044694;28;46372;-77
2023/08/08 03:25:52;;;;;;;;;2.33;2.33;;;;;;;;5045968;28;47487;-77
2023/08/08 03:28:17;;;;;;;;;6.00;6.00;;;;;;;;5072234;28;45769;-78
2023/08/08 03:30:42;;;;;;;;;3.00;3.00;;;;;;;;5054423;28;45798;-76
2023/08/08 03:33:07;;;;;;;;;7.00;4.33;;;;;;;;5072686;28;45914;-76
2023/08/08 03:35:33;;;;;;;;;4.67;4.67;;;;;;;;5053354;28;47504;-78
2023/08/08 03:37:58;;;;;;;;;3.33;3.33;;;;;;;;5053916;28;45704;-76
2023/08/08 03:40:23;;;;;;;;;6.33;4.00;;;;;;;;5072100;28;45392;-78
2023/08/08 03:42:49;;;;;;;;;5.00;5.00;;;;;;;;5071423;28;45872;-77
2023/08/08 03:45:14;;;;;;;;;4.67;4.00;;;;;;;;5071715;28;45521;-77
2023/08/08 03:47:39;;;;;;;;;3.67;3.67;;;;;;;;5053914;28;45390;-77
2023/08/08 03:50:05;;;;;;;;;4.67;4.67;;;;;;;;5072085;28;45387;-76
2023/08/08 03:52:31;;;;;;;;;5.00;4.33;;;;;;;;5072135;28;45566;-76
2023/08/08 03:54:56;;;;;;;;;2.67;2.33;;;;;;;;5053736;28;47378;-76
2023/08/08 03:57:21;;;;;;;;;2.00;2.00;;;;;;;;5072356;28;45825;-76
2023/08/08 03:59:47;;;;;;;;;6.00;3.00;;;;;;;;5055004;28;45859;-79
2023/08/08 04:02:12;;;;;;;;;4.67;3.33;;;;;;;;5053669;28;46546;-78
2023/08/08 04:04:38;;;;;;;;;5.00;5.00;;;;;;;;5072919;28;45531;-78
2023/08/08 04:07:03;;;;;;;;;3.33;2.00;;;;;;;;5054651;28;45731;-76
2023/08/08 04:09:29;;;;;;;;;4.00;3.00;;;;;;;;5054248;28;46046;-78
2023/08/08 04:11:54;;;;;;;;;8.00;3.00;;;;;;;;5052195;28;46365;-78
2023/08/08 04:14:19;;;;;;;;;3.00;3.00;;;;;;;;5085151;28;45429;-78
2023/08/08 04:16:44;;;;;;;;;3.33;3.33;;;;;;;;5058010;28;45709;-77
2023/08/08 04:19:09;;;;;;;;;4.00;4.00;;;;;;;;5072564;28;45787;-78
2023/08/08 04:21:35;;;;;;;;;4.00;4.00;;;;;;;;5071934;28;45619;-77
2023/08/08 04:24:00;;;;;;;;;4.67;4.33;;;;;;;;5046996;28;47313;-76
2023/08/08 04:26:25;;;;;;;;;5.00;4.00;;;;;;;;5046944;28;45474;-78
2023/08/08 04:28:51;;;;;;;;;5.00;3.33;;;;;;;;5053367;28;45727;-77
2023/08/08 04:31:16;;;;;;;;;4.00;3.00;;;;;;;;5071567;28;45467;-77
2023/08/08 04:33:41;;;;;;;;;3.00;3.00;;;;;;;;5070370;28;47156;-77
2023/08/08 04:36:07;;;;;;;;;3.00;3.00;;;;;;;;5060797;28;45763;-77
2023/08/08 04:38:32;;;;;;;;;4.00;4.00;;;;;;;;5052277;28;45636;-77
2023/08/08 04:40:57;;;;;;;;;4.67;3.67;;;;;;;;5052387;28;46267;-76
2023/08/08 04:43:22;;;;;;;;;3.33;3.33;;;;;;;;5069448;28;46180;-78
2023/08/08 04:45:48;;;;;;;;;7.00;5.33;;;;;;;;5070680;28;45454;-78
2023/08/08 04:48:13;;;;;;;;;3.00;2.00;;;;;;;;5070626;28;45938;-77
2023/08/08 04:50:39;;;;;;;;;3.00;2.67;;;;;;;;5051261;28;45426;-76
2023/08/08 04:53:04;;;;;;;;;6.00;2.67;;;;;;;;5053637;28;47974;-78
2023/08/08 04:55:29;;;;;;;;;4.00;2.67;;;;;;;;5054992;28;45570;-77
2023/08/08 04:57:54;;;;;;;;;3.33;3.00;;;;;;;;5061737;28;45782;-78
2023/08/08 05:00:20;;;;;;;;;4.00;3.00;;;;;;;;5052465;28;46992;-76
2023/08/08 05:02:45;;;;;;;;;2.33;2.00;;;;;;;;5071305;28;46351;-76
2023/08/08 05:05:10;;;;;;;;;4.33;3.00;;;;;;;;5052815;28;45509;-76
2023/08/08 05:07:37;;;;;;;;;4.33;3.00;;;;;;;;5071904;28;45449;-77
2023/08/08 05:10:03;;;;;;;;;3.00;3.00;;;;;;;;5049161;28;46107;-78
2023/08/08 05:12:28;;;;;;;;;3.00;3.00;;;;;;;;5072418;28;45580;-76
2023/08/08 05:14:53;;;;;;;;;4.00;4.00;;;;;;;;5070815;28;45663;-76
2023/08/08 05:17:18;;;;;;;;;2.33;2.33;;;;;;;;5071511;28;45584;-77
2023/08/08 05:19:44;;;;;;;;;4.67;3.00;;;;;;;;5053199;28;45652;-76
2023/08/08 05:22:09;;;;;;;;;3.00;3.00;;;;;;;;5071420;28;45479;-76
2023/08/08 05:24:35;;;;;;;;;3.00;3.00;;;;;;;;5059531;28;45911;-77
2023/08/08 05:27:00;;;;;;;;;3.33;3.33;;;;;;;;5049585;28;45591;-78
2023/08/08 05:29:26;;;;;;;;;3.67;3.67;;;;;;;;5071893;28;45399;-77
2023/08/08 05:31:51;;;;;;;;;5.00;5.00;;;;;;;;5051941;28;47365;-77
2023/08/08 05:34:17;;;;;;;;;3.33;2.67;;;;;;;;5062294;28;45547;-79
2023/08/08 05:36:42;;;;;;;;;6.00;3.33;;;;;;;;5067058;28;45757;-78
2023/08/08 05:39:09;;;;;;;;;2.33;2.33;;;;;;;;5048907;28;45821;-78
2023/08/08 05:41:34;;;;;;;;;1.33;1.33;;;;;;;;5047036;28;47163;-78
2023/08/08 05:44:00;;;;;;;;;4.00;2.67;;;;;;;;5063437;28;45383;-80
2023/08/08 05:46:25;;;;;;;;;3.00;3.00;;;;;;;;5058070;28;45785;-78
2023/08/08 05:48:50;;;;;;;;;7.00;4.00;;;;;;;;5058483;28;46210;-78
2023/08/08 05:51:15;;;;;;;;;5.33;3.00;;;;;;;;5053053;28;47137;-77
2023/08/08 05:53:41;;;;;;;;;7.33;5.33;;;;;;;;5070994;28;45846;-77
2023/08/08 05:56:06;;;;;;;;;4.33;3.33;;;;;;;;5052828;28;45536;-78
2023/08/08 05:58:31;;;;;;;;;3.50;2.00;;;;;;;;5052245;28;46493;-77
2023/08/08 06:00:58;;;;;;;;;3.75;2.75;;;;;;;;5054362;28;48204;-78
2023/08/08 06:03:23;;;;;;;;;3.00;3.00;;;;;;;;5053002;28;46050;-77
2023/08/08 06:05:48;;;;;;;;;3.00;3.00;;;;;;;;5054407;28;45690;-76
2023/08/08 06:08:16;;;;;;;;;5.00;3.00;;;;;;;;5083334;28;45506;-76
2023/08/08 06:10:41;;;;;;;;;2.00;2.00;;;;;;;;5056555;28;47331;-77
2023/08/08 06:13:06;;;;;;;;;3.50;2.75;;;;;;;;5049337;28;45454;-78
2023/08/08 06:15:32;;;;;;;;;2.00;1.75;;;;;;;;5068597;28;45453;-78
2023/08/08 06:17:57;;;;;;;;;2.00;2.00;;;;;;;;5045922;28;46213;-77
2023/08/08 06:20:22;;;;;;;;;3.00;2.00;;;;;;;;5052422;28;47079;-78
2023/08/08 06:22:48;;;;;;;;;5.00;3.00;;;;;;;;5052404;28;45802;-77
2023/08/08 06:25:14;;;;;;;;;1.25;1.25;;;;;;;;5040795;28;45396;-78
2023/08/08 06:27:39;;;;;;;;;2.50;1.50;;;;;;;;5070578;28;45516;-78
2023/08/08 06:30:04;;;;;;;;;2.50;2.00;;;;;;;;5051284;28;48059;-76
2023/08/08 06:32:30;;;;;;;;;2.00;2.00;;;;;;;;5070902;28;45790;-79
2023/08/08 06:34:55;;;;;;;;;2.50;2.25;;;;;;;;5070494;28;45793;-77
2023/08/08 06:37:20;;;;;;;;;2.00;0.75;;;;;;;;5071585;28;45679;-78
2023/08/08 06:39:45;;;;;;;;;2.50;2.00;;;;;;;;5072064;28;45540;-77
2023/08/08 06:42:11;;;;;;;;;0.00;0.00;;;;;;;;5070635;28;45639;-76
2023/08/08 06:44:41;;;;;;;;;2.00;2.00;;;;;;;;5070738;28;45847;-79
2023/08/08 06:47:06;;;;;;;;;1.00;1.00;;;;;;;;5051135;28;46087;-77
2023/08/08 06:49:31;;;;;;;;;3.75;1.50;;;;;;;;5051705;28;47822;-79
2023/08/08 06:51:57;;;;;;;;;2.00;2.00;;;;;;;;5051909;28;45677;-78
2023/08/08 06:54:22;;;;;;;;;4.25;1.00;;;;;;;;5070112;28;45463;-78
2023/08/08 06:56:47;;;;;;;;;2.00;2.00;;;;;;;;5070415;28;45482;-77
2023/08/08 06:59:12;;;;;;;;;2.25;2.25;;;;;;;;5070478;28;46399;-77
2023/08/08 07:01:38;;;;;;;;;2.25;2.25;;;;;;;;5067399;28;46474;-77
2023/08/08 07:04:03;;;;;;;;;1.00;1.00;;;;;;;;5050531;28;45835;-78
2023/08/08 07:06:29;;;;;;;;;2.00;2.00;;;;;;;;5073935;28;45611;-77
2023/08/08 07:08:54;;;;;;;;;3.50;2.25;;;;;;;;5074719;28;46158;-77
2023/08/08 07:11:20;;;;;;;;;4.00;1.00;;;;;;;;5074248;28;45470;-78
2023/08/08 07:13:45;;;;;;;;;1.50;1.50;;;;;;;;5047212;28;45902;-77
2023/08/08 07:16:11;;;;;;;;;1.00;1.00;;;;;;;;5056203;28;46011;-77
2023/08/08 07:18:37;;;;;;;;;2.00;1.50;;;;;;;;5071113;28;45881;-77
2023/08/08 07:21:02;;;;;;;;;2.25;1.00;;;;;;;;5068666;28;45821;-77
2023/08/08 07:23:28;;;;;;;;;0.50;0.50;;;;;;;;5053612;28;45522;-77
2023/08/08 07:25:54;;;;;;;;;2.25;2.00;;;;;;;;5063553;28;45929;-78
2023/08/08 07:28:19;;;;;;;;;1.00;1.00;;;;;;;;5073452;28;46078;-78
2023/08/08 07:30:44;;;;;;;;;4.00;2.00;;;;;;;;5064635;28;45973;-77
2023/08/08 07:33:10;;;;;;;;;1.00;1.00;;;;;;;;5075909;28;45834;-76
2023/08/08 07:35:35;;;;;;;;;3.00;2.25;;;;;;;;5075909;28;46171;-77
2023/08/08 07:38:01;;;;;;;;;2.50;1.50;;;;;;;;5082390;28;46017;-82
2023/08/08 07:40:26;;;;;;;;;2.75;1.75;;;;;;;;5064654;28;45344;-82
2023/08/08 07:42:51;;;;;;;;;1.50;1.50;;;;;;;;5065710;28;45639;-83
2023/08/08 07:45:17;;;;;;;;;1.50;1.00;;;;;;;;5085595;28;45401;-81
2023/08/08 07:47:42;;;;;;;;;2.00;1.00;;;;;;;;5079435;28;45398;-82
2023/08/08 07:50:10;;;;;;;;;1.00;1.00;;;;;;;;5094197;28;45405;-81
2023/08/08 07:52:36;;;;;;;;;1.75;1.25;;;;;;;;5076147;28;45473;-82
2023/08/08 07:55:03;;;;;;;;;1.00;1.00;;;;;;;;5096141;28;45546;-84
2023/08/08 07:57:28;;;;;;;;;1.75;0.75;;;;;;;;5096374;28;45310;-83
2023/08/08 07:59:53;;;;;;;;;4.75;2.00;;;;;;;;5095374;28;45212;-82
2023/08/08 08:02:19;;;;;;;;;1.00;0.50;;;;;;;;5068700;28;45769;-82
2023/08/08 08:04:44;;;;;;;;;0.75;0.75;;;;;;;;5065371;28;46025;-82
2023/08/08 08:07:10;;;;;;;;;1.75;0.00;;;;;;;;5078795;28;46125;-82
2023/08/08 08:09:35;;;;;;;;;0.00;0.00;;;;;;;;5064836;28;45273;-82
2023/08/08 08:12:00;;;;;;;;;1.00;1.00;;;;;;;;5064471;28;45480;-84
2023/08/08 08:14:25;;;;;;;;;2.00;1.00;;;;;;;;5056056;28;45396;-82
2023/08/08 08:16:51;;;;;;;;;0.75;0.00;;;;;;;;5055506;28;46837;-83
2023/08/08 08:19:17;;;;;;;;;0.00;0.00;;;;;;;;5069043;28;45494;-82
2023/08/08 08:21:43;;;;;;;;;1.00;1.00;;;;;;;;5065648;28;45419;-83
2023/08/08 08:24:21;;;;;;;;;0.25;0.25;;;;;;;;5059846;28;46345;-84
2023/08/08 08:26:46;;;;;;;;;1.75;1.75;;;;;;;;5071040;28;45630;-84
2023/08/08 08:29:11;;;;;;;;;0.00;0.00;;;;;;;;5062286;28;45406;-84
2023/08/08 08:31:54;;;;;;;;;1.50;1.25;;;;;;;;5082561;28;45873;-85
2023/08/08 08:34:34;;;;;;;;;0.00;0.00;;;;;;;;5086726;28;46060;-84
2023/08/08 08:37:00;;;;;;;;;0.00;0.00;;;;;;;;5080332;28;45506;-85
2023/08/08 08:43:18;;;;;;;;;;;;;;;;;;;;;
2023/08/08 08:45:47;;;;;;;;;0.00;0.00;;;;;;;;5075283;28;44911;-85
2023/08/08 08:48:14;;;;;;;;;2.00;1.00;;;;;;;;5063999;28;46785;-84
2023/08/08 08:50:39;;;;;;;;;0.00;0.00;;;;;;;;5087530;28;44760;-84
2023/08/08 08:53:05;;;;;;;;;0.50;0.00;;;;;;;;5086878;28;45407;-83
2023/08/08 08:55:30;;;;;;;;;1.00;1.00;;;;;;;;5068708;28;45332;-85
2023/08/08 08:57:56;;;;;;;;;4.00;2.00;;;;;;;;5067754;28;47455;-82
2023/08/08 09:00:22;;;;;;;;;1.00;1.00;;;;;;;;5086232;28;45603;-84
2023/08/08 09:02:48;;;;;;;;;1.00;1.00;;;;;;;;5062822;28;45788;-83
2023/08/08 09:05:14;;;;;;;;;0.25;0.25;;;;;;;;5078739;28;45880;-83
2023/08/08 09:07:41;;;;;;;;;4.00;2.50;;;;;;;;5065902;28;47270;-83
2023/08/08 09:10:06;;;;;;;;;1.75;0.50;;;;;;;;5066479;28;45447;-82
2023/08/08 09:12:33;;;;;;;;;2.00;0.00;;;;;;;;5066344;28;45401;-83
2023/08/08 09:14:58;;;;;;;;;1.75;1.00;;;;;;;;5065761;28;46120;-83
2023/08/08 09:17:27;;;;;;;;;1.00;1.00;;;;;;;;5073993;28;45423;-84
2023/08/08 09:19:53;;;;;;;;;1.00;0.00;;;;;;;;5058921;28;45480;-83
2023/08/08 09:22:19;;;;;;;;;1.00;1.00;;;;;;;;5065154;28;45787;-79
2023/08/08 09:24:46;;;;;;;;;0.50;0.00;;;;;;;;5065803;28;45603;-78
2023/08/08 09:27:12;;;;;;;;;1.25;1.00;;;;;;;;5049558;28;49012;-79
2023/08/08 09:29:37;;;;;;;;;1.00;1.00;;;;;;;;5051413;28;45603;-77
2023/08/08 09:32:04;;;;;;;;;0.50;0.00;;;;;;;;5046361;28;45396;-78
2023/08/08 09:34:29;;;;;;;;;2.50;2.50;;;;;;;;5055066;28;45839;-86
2023/08/08 09:36:55;;;;;;;;;0.75;0.75;;;;;;;;5048516;28;47105;-80
2023/08/08 09:39:21;;;;;;;;;1.25;1.25;;;;;;;;5073198;28;45409;-83
2023/08/08 09:41:46;;;;;;;;;1.00;1.00;;;;;;;;5059290;28;46117;-85
2023/08/08 09:44:12;;;;;;;;;1.00;1.00;;;;;;;;5080373;28;45587;-84
2023/08/08 09:46:37;;;;;;;;;1.00;1.00;;;;;;;;5088047;28;45603;-84
2023/08/08 09:49:03;;;;;;;;;2.00;1.00;;;;;;;;5086039;28;45486;-84
2023/08/08 09:51:28;;;;;;;;;1.50;1.50;;;;;;;;5061844;28;45157;-83
2023/08/08 09:53:55;;;;;;;;;1.25;1.25;;;;;;;;5078558;28;45567;-83
2023/08/08 09:56:20;;;;;;;;;0.25;0.25;;;;;;;;5058186;28;48124;-84
2023/08/08 09:58:46;;;;;;;;;2.00;0.00;;;;;;;;5051876;28;45498;-85
2023/08/08 10:01:12;;;;;;;;;1.00;1.00;;;;;;;;5054874;28;45466;-79
2023/08/08 10:03:38;;;;;;;;;1.25;1.25;;;;;;;;5053061;28;45818;-80
2023/08/08 10:06:03;;;;;;;;;1.50;1.50;;;;;;;;5071486;28;46630;-80
2023/08/08 10:08:29;;;;;;;;;1.00;1.00;;;;;;;;5053390;28;45808;-80
2023/08/08 10:10:55;;;;;;;;;1.00;1.00;;;;;;;;5054069;28;45466;-80
2023/08/08 10:13:25;;;;;;;;;1.00;1.00;;;;;;;;5071478;28;45679;-80
2023/08/08 10:15:52;;;;;;;;;2.00;1.25;;;;;;;;5053277;28;46751;-80
2023/08/08 10:18:18;;;;;;;;;0.75;0.75;;;;;;;;5069422;28;45683;-83
2023/08/08 10:20:44;;;;;;;;;1.75;1.75;;;;;;;;5054365;28;45512;-83
2023/08/08 10:23:10;;;;;;;;;0.00;0.00;;;;;;;;5054354;28;45846;-84
2023/08/08 10:25:35;;;;;;;;;0.00;0.00;;;;;;;;5058919;28;46412;-79
2023/08/08 10:28:05;;;;;;;;;1.00;1.00;;;;;;;;5071416;28;45465;-84
2023/08/08 10:30:41;;;;;;;;;2.00;0.50;;;;;;;;5063115;28;45861;-84
2023/08/08 10:33:15;;;;;;;;;1.75;1.75;;;;;;;;5078566;28;45422;-83
2023/08/08 10:35:41;;;;;;;;;2.25;1.00;;;;;;;;5056585;28;47181;-82
2023/08/08 10:38:08;;;;;;;;;1.00;1.00;;;;;;;;5059281;28;46099;-78
2023/08/08 10:40:33;;;;;;;;;2.00;2.00;;;;;;;;5071939;28;45456;-78
2023/08/08 10:42:58;;;;;;;;;2.00;2.00;;;;;;;;5065558;28;45684;-78
2023/08/08 10:45:29;;;;;;;;;7.75;6.75;;;;;;;;5068860;28;46839;-78
2023/08/08 10:47:54;;;;;;;;;1.50;1.00;;;;;;;;5053259;28;45918;-79
2023/08/08 10:50:23;;;;;;;;;6.00;5.25;;;;;;;;5074412;28;45844;-78
2023/08/08 10:52:57;;;;;;;;;4.75;4.75;;;;;;;;5074244;28;45603;-77
2023/08/08 10:55:27;;;;;;;;;2.75;2.75;;;;;;;;5048874;28;47085;-78
2023/08/08 10:57:53;;;;;;;;;2.00;2.00;;;;;;;;5054544;28;45497;-79
2023/08/08 11:00:19;;;;;;;;;5.00;5.00;;;;;;;;5052904;28;45549;-78
2023/08/08 11:02:45;;;;;;;;;3.00;3.00;;;;;;;;5053776;28;45770;-79
2023/08/08 11:05:10;;;;;;;;;6.00;3.25;;;;;;;;5073873;28;46186;-78
2023/08/08 11:07:37;;;;;;;;;2.00;2.00;;;;;;;;5075578;28;45958;-83
2023/08/08 11:10:02;;;;;;;;;4.00;2.00;;;;;;;;5075604;28;45430;-82
2023/08/08 11:12:28;;;;;;;;;2.00;2.00;;;;;;;;5056211;28;47121;-83
2023/08/08 11:14:54;;;;;;;;;2.00;2.00;;;;;;;;5073602;28;45791;-82
2023/08/08 11:17:20;;;;;;;;;1.00;1.00;;;;;;;;5058110;28;45489;-81
2023/08/08 11:19:45;;;;;;;;;0.50;0.50;;;;;;;;5058578;28;45530;-83
2023/08/08 11:22:13;;;;;;;;;3.00;3.00;;;;;;;;5057894;28;45541;-81
2023/08/08 11:24:39;;;;;;;;;6.25;5.00;;;;;;;;5062282;28;45826;-78
2023/08/08 11:27:04;;;;;;;;;3.00;3.00;;;;;;;;5068873;28;45532;-78
2023/08/08 11:29:30;;;;;;;;;1.00;1.00;;;;;;;;5076127;28;45710;-80
2023/08/08 11:31:56;;;;;;;;;2.25;1.25;;;;;;;;5063696;28;45707;-82
2023/08/08 11:34:22;;;;;;;;;8.25;6.50;;;;;;;;5092237;28;46036;-82
2023/08/08 11:36:48;;;;;;;;;1.00;1.00;;;;;;;;5065448;28;44857;-78
2023/08/08 11:39:24;;;;;;;;;2.00;2.00;;;;;;;;5055398;28;45347;-79
2023/08/08 11:42:02;;;;;;;;;2.00;1.00;;;;;;;;5047873;28;47130;-79
2023/08/08 11:44:27;;;;;;;;;1.50;1.50;;;;;;;;5059702;28;47193;-77
2023/08/08 11:46:52;;;;;;;;;1.00;1.00;;;;;;;;5055641;28;45492;-78
2023/08/08 11:49:18;;;;;;;;;2.75;1.75;;;;;;;;5065193;28;45513;-78
2023/08/08 11:51:44;;;;;;;;;2.00;2.00;;;;;;;;5063254;28;45901;-79
2023/08/08 11:54:09;;;;;;;;;2.75;2.00;;;;;;;;5072189;28;45556;-79
2023/08/08 11:56:36;;;;;;;;;1.75;1.75;;;;;;;;5054419;28;45842;-78
2023/08/08 11:59:02;;;;;;;;;3.25;1.75;;;;;;;;5053372;28;45971;-79
2023/08/08 12:01:27;;;;;;;;;3.75;2.25;;;;;;;;5071341;28;45766;-78
2023/08/08 12:03:53;;;;;;;;;2.25;2.25;;;;;;;;5053811;28;47673;-79
2023/08/08 12:06:19;;;;;;;;;3.00;1.00;;;;;;;;5072156;28;45744;-79
2023/08/08 12:08:48;;;;;;;;;1.25;1.25;;;;;;;;5073221;28;45717;-78
2023/08/08 12:11:14;;;;;;;;;1.50;1.50;;;;;;;;5072244;28;46094;-80
2023/08/08 12:13:43;;;;;;;;;1.25;1.25;;;;;;;;5053307;28;47146;-78
2023/08/08 12:16:09;;;;;;;;;1.25;1.00;;;;;;;;5073228;28;45790;-77
2023/08/08 12:18:37;;;;;;;;;3.00;1.00;;;;;;;;5056593;28;45688;-80
2023/08/08 12:21:02;;;;;;;;;0.00;0.00;;;;;;;;5054104;28;45510;-78
2023/08/08 12:23:27;;;;;;;;;2.50;1.25;;;;;;;;5051627;28;47028;-78
2023/08/08 12:25:53;;;;;;;;;0.00;0.00;;;;;;;;5039263;28;45776;-79
2023/08/08 12:28:19;;;;;;;;;1.00;1.00;;;;;;;;5066758;28;45481;-78
2023/08/08 12:30:44;;;;;;;;;0.50;0.00;;;;;;;;5070859;28;45551;-78
2023/08/08 12:33:09;;;;;;;;;1.00;1.00;;;;;;;;5071712;28;45736;-78
2023/08/08 12:35:34;;;;;;;;;2.25;1.25;;;;;;;;5073090;28;46083;-77
2023/08/08 12:38:00;;;;;;;;;1.00;1.00;;;;;;;;5071709;28;45962;-78
2023/08/08 12:40:25;;;;;;;;;0.50;0.50;;;;;;;;5053069;28;46695;-80
2023/08/08 12:42:50;;;;;;;;;2.25;1.75;;;;;;;;5072509;28;45387;-77
2023/08/08 12:45:17;;;;;;;;;1.50;1.50;;;;;;;;5071039;28;45403;-79
2023/08/08 12:47:43;;;;;;;;;1.00;1.00;;;;;;;;5052242;28;45544;-78
2023/08/08 12:50:08;;;;;;;;;1.00;1.00;;;;;;;;5054035;28;46114;-79
2023/08/08 12:52:33;;;;;;;;;2.75;2.75;;;;;;;;5070577;28;47139;-80
2023/08/08 12:54:59;;;;;;;;;4.75;2.00;;;;;;;;5071921;28;45434;-78
2023/08/08 12:57:25;;;;;;;;;4.00;3.00;;;;;;;;5071625;28;45788;-80
2023/08/08 12:59:50;;;;;;;;;2.25;2.25;;;;;;;;5072002;28;45906;-78
2023/08/08 13:02:15;;;;;;;;;3.50;2.00;;;;;;;;5071970;28;45869;-79
2023/08/08 13:04:40;;;;;;;;;5.25;4.25;;;;;;;;5071712;28;46250;-79
2023/08/08 13:07:07;;;;;;;;;1.00;1.00;;;;;;;;5053219;28;45707;-78
2023/08/08 13:09:32;;;;;;;;;1.00;1.00;;;;;;;;5053299;28;45942;-79
2023/08/08 13:11:57;;;;;;;;;1.00;1.00;;;;;;;;5072526;28;46476;-78
2023/08/08 13:14:23;;;;;;;;;1.00;1.00;;;;;;;;5058125;28;45756;-79
2023/08/08 13:17:01;;;;;;;;;3.25;1.00;;;;;;;;5081580;28;45486;-79
2023/08/08 13:19:41;;;;;;;;;3.50;2.00;;;;;;;;5062052;28;45492;-80
2023/08/08 13:22:13;;;;;;;;;2.00;1.00;;;;;;;;5078046;28;46135;-77
2023/08/08 13:24:53;;;;;;;;;1.75;0.75;;;;;;;;5055656;28;45874;-80
2023/08/08 13:28:16;;;;;;;;;2.00;1.25;;;;;;;;5066477;28;46100;-79
2023/08/08 13:30:49;;;;;;;;;2.00;0.25;;;;;;;;4984267;28;45997;-80
2023/08/08 13:33:38;;;;;;;;;1.75;1.75;;;;;;;;5074787;28;45486;-80
2023/08/08 13:36:20;;;;;;;;;1.00;1.00;;;;;;;;5061819;28;45782;-78
2023/08/08 13:39:13;;;;;;;;;2.00;2.00;;;;;;;;5051033;28;46079;-81
2023/08/08 13:41:46;;;;;;;;;1.00;1.00;;;;;;;;5073318;28;45340;-78
2023/08/08 13:44:38;;;;;;;;;;;;;;;;;;;;;
2023/08/08 13:47:10;;;;;;;;;7.00;6.00;;;;;;;;5081117;28;72665;-80
2023/08/08 13:49:52;;;;;;;;;;;;;;;;;;;;;
2023/08/08 13:55:25;;;;;;;;;7.00;7.00;;;;;;;;5079669;28;46799;-79
2023/08/08 13:58:07;;;;;;;;;4.00;3.00;;;;;;;;5066207;28;45646;-80
2023/08/08 14:01:02;;;;;;;;;1.00;1.00;;;;;;;;5078003;28;44792;-80
2023/08/08 14:03:45;;;;;;;;;1.00;1.00;;;;;;;;5065755;28;46541;-79
2023/08/08 14:06:10;;;;;;;;;2.00;2.00;;;;;;;;5045715;28;47292;-77
2023/08/08 14:08:35;;;;;;;;;1.00;1.00;;;;;;;;5066834;28;46030;-79
2023/08/08 14:11:01;;;;;;;;;2.00;0.50;;;;;;;;5064214;28;45535;-76
2023/08/08 14:13:26;;;;;;;;;1.00;1.00;;;;;;;;5066009;28;45627;-78
2023/08/08 14:15:54;;;;;;;;;3.00;2.00;;;;;;;;5045940;28;48531;-79
2023/08/08 14:21:42;;;;;;;;;1.75;1.75;;;;;;;;5071744;28;45520;-81
2023/08/08 14:24:07;;;;;;;;;1.75;1.75;;;;;;;;5072064;28;45480;-81
2023/08/08 14:26:35;;;;;;;;;2.00;2.00;;;;;;;;5052479;28;47870;-82
2023/08/08 14:29:01;;;;;;;;;1.00;1.00;;;;;;;;5056870;28;45653;-82
2023/08/08 14:31:26;;;;;;;;;1.75;0.00;;;;;;;;5073719;28;45339;-82
2023/08/08 14:33:51;;;;;;;;;1.00;1.00;;;;;;;;5057616;28;45497;-83
2023/08/08 14:36:16;;;;;;;;;2.75;1.75;;;;;;;;5072828;28;45521;-83
2023/08/08 14:38:42;;;;;;;;;0.25;0.25;;;;;;;;5057322;28;45445;-83
2023/08/08 14:41:07;;;;;;;;;1.00;1.00;;;;;;;;5054894;28;45749;-84
2023/08/08 14:43:33;;;;;;;;;0.75;0.75;;;;;;;;5056537;28;46063;-82
2023/08/08 14:46:07;;;;;;;;;2.75;1.25;;;;;;;;5055422;28;47163;-81
2023/08/08 14:48:33;;;;;;;;;2.00;2.00;;;;;;;;5072970;28;45475;-81
2023/08/08 14:51:00;;;;;;;;;2.00;2.00;;;;;;;;5055064;28;45570;-82
2023/08/08 14:53:25;;;;;;;;;0.00;0.00;;;;;;;;5045904;28;46316;-86
2023/08/08 14:55:50;;;;;;;;;1.00;1.00;;;;;;;;5054536;28;47344;-87
2023/08/08 14:58:16;;;;;;;;;1.25;0.00;;;;;;;;5060687;28;45799;-82